sensor_id;sensor_type;location;lat;lon;timestamp;pressure;altitude;pressure_sealevel;temperature;humidity
8641;BME280;4358;42.100;25.222;2023-03-23T00:01:31;100091.69;;;10.78;100.00
8641;BME280;4358;42.100;25.222;2023-03-23T00:04:03;100085.56;;;10.78;100.00
8641;BME280;4358;42.100;25.222;2023-03-23T00:06:30;100093.31;;;10.81;100.00
8641;BME280;4358;42.100;25.222;2023-03-23T00:09:00;100090.91;;;10.90;100.00
8641;BME280;4358;42.100;25.222;2023-03-23T00:11:31;100086.34;;;10.92;100.00
8641;BME280;4358;42.100;25.222;2023-03-23T00:14:00;100084.69;;;10.77;100.00
8641;BME280;4358;42.100;25.222;2023-03-23T00:16:29;100085.44;;;10.79;100.00
8641;BME280;4358;42.100;25.222;2023-03-23T00:18:59;100082.81;;;10.65;100.00
8641;BME280;4358;42.100;25.222;2023-03-23T00:21:27;100078.53;;;10.62;100.00
8641;BME280;4358;42.100;25.222;2023-03-23T00:24:05;100076.00;;;10.61;100.00
8641;BME280;4358;42.100;25.222;2023-03-23T00:26:35;100073.91;;;10.66;100.00
8641;BME280;4358;42.100;25.222;2023-03-23T00:29:07;100071.66;;;10.60;100.00
8641;BME280;4358;42.100;25.222;2023-03-23T00:31:35;100072.59;;;10.59;100.00
8641;BME280;4358;42.100;25.222;2023-03-23T00:34:04;100071.00;;;10.42;100.00
8641;BME280;4358;42.100;25.222;2023-03-23T00:36:32;100077.09;;;10.44;100.00
8641;BME280;4358;42.100;25.222;2023-03-23T00:39:00;100068.91;;;10.47;100.00
8641;BME280;4358;42.100;25.222;2023-03-23T00:41:28;100068.66;;;10.38;100.00
8641;BME280;4358;42.100;25.222;2023-03-23T00:43:57;100070.47;;;10.23;100.00
8641;BME280;4358;42.100;25.222;2023-03-23T00:46:26;100072.81;;;10.13;100.00
8641;BME280;4358;42.100;25.222;2023-03-23T00:48:53;100072.75;;;10.15;100.00
8641;BME280;4358;42.100;25.222;2023-03-23T00:51:20;100062.97;;;10.15;100.00
8641;BME280;4358;42.100;25.222;2023-03-23T00:53:47;100057.31;;;10.22;100.00
8641;BME280;4358;42.100;25.222;2023-03-23T00:56:14;100064.97;;;10.26;100.00
8641;BME280;4358;42.100;25.222;2023-03-23T00:58:41;100066.81;;;10.26;100.00
8641;BME280;4358;42.100;25.222;2023-03-23T01:01:09;100067.44;;;10.29;100.00
8641;BME280;4358;42.100;25.222;2023-03-23T01:03:36;100061.44;;;10.11;100.00
8641;BME280;4358;42.100;25.222;2023-03-23T01:06:05;100061.47;;;9.97;100.00
8641;BME280;4358;42.100;25.222;2023-03-23T01:08:33;100068.19;;;10.03;100.00
8641;BME280;4358;42.100;25.222;2023-03-23T01:11:04;100064.59;;;10.04;100.00
8641;BME280;4358;42.100;25.222;2023-03-23T01:13:32;100063.06;;;10.00;100.00
8641;BME280;4358;42.100;25.222;2023-03-23T01:15:59;100056.38;;;9.94;100.00
8641;BME280;4358;42.100;25.222;2023-03-23T01:18:28;100021.91;;;9.94;100.00
8641;BME280;4358;42.100;25.222;2023-03-23T01:20:55;100059.31;;;10.18;100.00
8641;BME280;4358;42.100;25.222;2023-03-23T01:23:22;100059.22;;;10.19;100.00
8641;BME280;4358;42.100;25.222;2023-03-23T01:25:49;100054.19;;;10.29;100.00
8641;BME280;4358;42.100;25.222;2023-03-23T01:28:19;100058.03;;;10.38;100.00
8641;BME280;4358;42.100;25.222;2023-03-23T01:30:46;100060.34;;;10.30;100.00
8641;BME280;4358;42.100;25.222;2023-03-23T01:33:13;100055.59;;;10.20;100.00
8641;BME280;4358;42.100;25.222;2023-03-23T01:35:41;100050.97;;;10.24;100.00
8641;BME280;4358;42.100;25.222;2023-03-23T01:38:08;100046.69;;;10.36;100.00
8641;BME280;4358;42.100;25.222;2023-03-23T01:40:35;100043.34;;;10.46;100.00
8641;BME280;4358;42.100;25.222;2023-03-23T01:43:02;100054.22;;;10.56;100.00
8641;BME280;4358;42.100;25.222;2023-03-23T01:45:33;100051.38;;;10.59;100.00
8641;BME280;4358;42.100;25.222;2023-03-23T01:48:08;100053.53;;;10.67;100.00
8641;BME280;4358;42.100;25.222;2023-03-23T01:50:43;100051.53;;;10.70;100.00
8641;BME280;4358;42.100;25.222;2023-03-23T01:53:13;100039.97;;;10.71;100.00
8641;BME280;4358;42.100;25.222;2023-03-23T01:55:43;100056.28;;;10.65;100.00
8641;BME280;4358;42.100;25.222;2023-03-23T01:58:13;100049.47;;;10.61;100.00
8641;BME280;4358;42.100;25.222;2023-03-23T02:00:41;100049.78;;;10.56;100.00
8641;BME280;4358;42.100;25.222;2023-03-23T02:03:08;100046.16;;;10.57;100.00
8641;BME280;4358;42.100;25.222;2023-03-23T02:05:40;100053.28;;;10.57;100.00
8641;BME280;4358;42.100;25.222;2023-03-23T02:08:10;100058.78;;;10.54;100.00
8641;BME280;4358;42.100;25.222;2023-03-23T02:10:39;100066.19;;;10.49;100.00
8641;BME280;4358;42.100;25.222;2023-03-23T02:13:07;100067.13;;;10.48;100.00
8641;BME280;4358;42.100;25.222;2023-03-23T02:15:43;100075.00;;;10.49;100.00
8641;BME280;4358;42.100;25.222;2023-03-23T02:18:27;100080.00;;;10.54;100.00
8641;BME280;4358;42.100;25.222;2023-03-23T02:21:18;100083.22;;;10.59;100.00
8641;BME280;4358;42.100;25.222;2023-03-23T02:24:02;100081.97;;;10.65;100.00
8641;BME280;4358;42.100;25.222;2023-03-23T02:26:43;100080.72;;;10.70;100.00
8641;BME280;4358;42.100;25.222;2023-03-23T02:32:23;100089.25;;;10.75;100.00
8641;BME280;4358;42.100;25.222;2023-03-23T02:35:01;100097.81;;;10.66;100.00
8641;BME280;4358;42.100;25.222;2023-03-23T02:37:32;100094.22;;;10.53;100.00
8641;BME280;4358;42.100;25.222;2023-03-23T02:40:07;100097.44;;;10.58;100.00
8641;BME280;4358;42.100;25.222;2023-03-23T02:42:38;100093.81;;;10.59;100.00
8641;BME280;4358;42.100;25.222;2023-03-23T02:45:08;100093.22;;;10.68;100.00
8641;BME280;4358;42.100;25.222;2023-03-23T02:47:38;100101.63;;;10.62;100.00
8641;BME280;4358;42.100;25.222;2023-03-23T02:50:10;100097.03;;;10.64;100.00
8641;BME280;4358;42.100;25.222;2023-03-23T02:52:40;100107.47;;;10.67;100.00
8641;BME280;4358;42.100;25.222;2023-03-23T02:55:09;100105.38;;;10.72;100.00
8641;BME280;4358;42.100;25.222;2023-03-23T02:57:40;100091.34;;;10.70;100.00
8641;BME280;4358;42.100;25.222;2023-03-23T03:00:10;100102.03;;;10.83;100.00
8641;BME280;4358;42.100;25.222;2023-03-23T03:02:40;100097.44;;;10.85;100.00
8641;BME280;4358;42.100;25.222;2023-03-23T03:05:17;100107.97;;;10.86;100.00
8641;BME280;4358;42.100;25.222;2023-03-23T03:08:00;100105.13;;;10.89;100.00
8641;BME280;4358;42.100;25.222;2023-03-23T03:10:36;100101.44;;;10.92;100.00
8641;BME280;4358;42.100;25.222;2023-03-23T03:13:12;100093.00;;;10.85;100.00
8641;BME280;4358;42.100;25.222;2023-03-23T03:15:45;100104.53;;;10.98;100.00
8641;BME280;4358;42.100;25.222;2023-03-23T03:18:18;100105.66;;;10.94;100.00
8641;BME280;4358;42.100;25.222;2023-03-23T03:20:51;100108.16;;;10.97;100.00
8641;BME280;4358;42.100;25.222;2023-03-23T03:23:22;100106.34;;;10.98;100.00
8641;BME280;4358;42.100;25.222;2023-03-23T03:25:50;100114.69;;;10.92;100.00
8641;BME280;4358;42.100;25.222;2023-03-23T03:28:19;100111.13;;;10.79;100.00
8641;BME280;4358;42.100;25.222;2023-03-23T03:30:48;100110.25;;;10.78;100.00
8641;BME280;4358;42.100;25.222;2023-03-23T03:33:17;100113.91;;;10.77;100.00
8641;BME280;4358;42.100;25.222;2023-03-23T03:35:46;100107.88;;;10.61;100.00
8641;BME280;4358;42.100;25.222;2023-03-23T03:38:15;100114.47;;;10.68;100.00
8641;BME280;4358;42.100;25.222;2023-03-23T03:40:41;100113.16;;;10.61;100.00
8641;BME280;4358;42.100;25.222;2023-03-23T03:43:08;100118.66;;;10.58;100.00
8641;BME280;4358;42.100;25.222;2023-03-23T03:45:35;100118.13;;;10.39;100.00
8641;BME280;4358;42.100;25.222;2023-03-23T03:48:02;100118.31;;;10.36;100.00
8641;BME280;4358;42.100;25.222;2023-03-23T03:50:29;100103.91;;;10.40;100.00
8641;BME280;4358;42.100;25.222;2023-03-23T03:52:56;100111.97;;;10.38;100.00
8641;BME280;4358;42.100;25.222;2023-03-23T03:55:24;100110.34;;;10.22;100.00
8641;BME280;4358;42.100;25.222;2023-03-23T03:57:53;100114.06;;;10.33;100.00
8641;BME280;4358;42.100;25.222;2023-03-23T04:00:21;100101.94;;;10.29;100.00
8641;BME280;4358;42.100;25.222;2023-03-23T04:02:49;100118.31;;;10.36;100.00
8641;BME280;4358;42.100;25.222;2023-03-23T04:05:20;100118.72;;;10.30;100.00
8641;BME280;4358;42.100;25.222;2023-03-23T04:07:48;100119.66;;;10.29;100.00
8641;BME280;4358;42.100;25.222;2023-03-23T04:10:17;100115.66;;;10.22;100.00
8641;BME280;4358;42.100;25.222;2023-03-23T04:12:46;100128.84;;;10.23;100.00
8641;BME280;4358;42.100;25.222;2023-03-23T04:15:13;100124.47;;;10.22;100.00
8641;BME280;4358;42.100;25.222;2023-03-23T04:17:40;100124.19;;;10.27;100.00
8641;BME280;4358;42.100;25.222;2023-03-23T04:20:09;100123.06;;;10.16;100.00
8641;BME280;4358;42.100;25.222;2023-03-23T04:22:43;100119.81;;;9.97;100.00
8641;BME280;4358;42.100;25.222;2023-03-23T04:25:12;100123.31;;;9.98;100.00
8641;BME280;4358;42.100;25.222;2023-03-23T04:27:40;100120.09;;;9.93;100.00
8641;BME280;4358;42.100;25.222;2023-03-23T04:30:11;100122.66;;;9.94;100.00
8641;BME280;4358;42.100;25.222;2023-03-23T04:32:39;100122.44;;;9.97;100.00
8641;BME280;4358;42.100;25.222;2023-03-23T04:35:09;100123.97;;;10.01;100.00
8641;BME280;4358;42.100;25.222;2023-03-23T04:37:37;100121.72;;;10.09;100.00
8641;BME280;4358;42.100;25.222;2023-03-23T04:40:05;100120.56;;;10.13;100.00
8641;BME280;4358;42.100;25.222;2023-03-23T04:42:37;100123.78;;;10.04;100.00
8641;BME280;4358;42.100;25.222;2023-03-23T04:45:05;100131.53;;;9.93;100.00
8641;BME280;4358;42.100;25.222;2023-03-23T04:47:36;100128.50;;;9.85;100.00
8641;BME280;4358;42.100;25.222;2023-03-23T04:50:07;100127.25;;;9.76;100.00
8641;BME280;4358;42.100;25.222;2023-03-23T04:52:35;100133.31;;;9.78;100.00
8641;BME280;4358;42.100;25.222;2023-03-23T04:55:04;100146.50;;;9.94;100.00
8641;BME280;4358;42.100;25.222;2023-03-23T04:57:32;100145.38;;;9.98;100.00
8641;BME280;4358;42.100;25.222;2023-03-23T05:00:00;100145.00;;;10.04;100.00
8641;BME280;4358;42.100;25.222;2023-03-23T05:02:35;100153.13;;;10.01;100.00
8641;BME280;4358;42.100;25.222;2023-03-23T05:05:03;100150.47;;;10.01;100.00
8641;BME280;4358;42.100;25.222;2023-03-23T05:07:30;100159.38;;;10.00;100.00
8641;BME280;4358;42.100;25.222;2023-03-23T05:09:57;100157.28;;;10.05;100.00
8641;BME280;4358;42.100;25.222;2023-03-23T05:12:23;100165.31;;;10.19;100.00
8641;BME280;4358;42.100;25.222;2023-03-23T05:14:50;100155.84;;;10.30;100.00
8641;BME280;4358;42.100;25.222;2023-03-23T05:17:17;100167.59;;;10.26;100.00
8641;BME280;4358;42.100;25.222;2023-03-23T05:19:45;100168.25;;;10.29;100.00
8641;BME280;4358;42.100;25.222;2023-03-23T05:22:13;100172.03;;;10.39;100.00
8641;BME280;4358;42.100;25.222;2023-03-23T05:24:40;100175.19;;;10.46;100.00
8641;BME280;4358;42.100;25.222;2023-03-23T05:27:08;100174.69;;;10.53;100.00
8641;BME280;4358;42.100;25.222;2023-03-23T05:29:35;100182.19;;;10.61;100.00
8641;BME280;4358;42.100;25.222;2023-03-23T05:32:03;100179.22;;;10.66;100.00
8641;BME280;4358;42.100;25.222;2023-03-23T05:34:31;100181.81;;;10.67;100.00
8641;BME280;4358;42.100;25.222;2023-03-23T05:37:00;100188.13;;;10.65;100.00
8641;BME280;4358;42.100;25.222;2023-03-23T05:39:28;100190.50;;;10.69;100.00
8641;BME280;4358;42.100;25.222;2023-03-23T05:41:55;100185.97;;;10.57;100.00
8641;BME280;4358;42.100;25.222;2023-03-23T05:44:22;100189.19;;;10.48;100.00
8641;BME280;4358;42.100;25.222;2023-03-23T05:46:49;100179.22;;;10.37;100.00
8641;BME280;4358;42.100;25.222;2023-03-23T05:49:16;100186.16;;;10.40;100.00
8641;BME280;4358;42.100;25.222;2023-03-23T05:51:44;100195.84;;;10.41;100.00
8641;BME280;4358;42.100;25.222;2023-03-23T05:54:13;100203.50;;;10.45;100.00
8641;BME280;4358;42.100;25.222;2023-03-23T05:56:41;100208.69;;;10.47;100.00
8641;BME280;4358;42.100;25.222;2023-03-23T05:59:08;100205.28;;;10.59;100.00
8641;BME280;4358;42.100;25.222;2023-03-23T06:01:36;100205.88;;;10.64;100.00
8641;BME280;4358;42.100;25.222;2023-03-23T06:04:03;100206.25;;;10.58;100.00
8641;BME280;4358;42.100;25.222;2023-03-23T06:06:30;100198.69;;;10.52;100.00
8641;BME280;4358;42.100;25.222;2023-03-23T06:08:58;100196.13;;;10.50;100.00
8641;BME280;4358;42.100;25.222;2023-03-23T06:11:26;100204.91;;;10.65;100.00
8641;BME280;4358;42.100;25.222;2023-03-23T06:13:53;100205.28;;;10.59;100.00
8641;BME280;4358;42.100;25.222;2023-03-23T06:16:20;100200.94;;;10.44;100.00
8641;BME280;4358;42.100;25.222;2023-03-23T06:18:47;100204.25;;;10.33;100.00
8641;BME280;4358;42.100;25.222;2023-03-23T06:21:15;100200.94;;;10.30;100.00
8641;BME280;4358;42.100;25.222;2023-03-23T06:23:44;100201.81;;;10.30;100.00
8641;BME280;4358;42.100;25.222;2023-03-23T06:26:13;100204.13;;;10.20;100.00
8641;BME280;4358;42.100;25.222;2023-03-23T06:28:43;100202.63;;;10.16;100.00
8641;BME280;4358;42.100;25.222;2023-03-23T06:31:10;100206.97;;;10.17;100.00
8641;BME280;4358;42.100;25.222;2023-03-23T06:33:37;100194.22;;;10.24;100.00
8641;BME280;4358;42.100;25.222;2023-03-23T06:36:05;100212.13;;;10.35;100.00
8641;BME280;4358;42.100;25.222;2023-03-23T06:38:32;100211.34;;;10.47;100.00
8641;BME280;4358;42.100;25.222;2023-03-23T06:40:59;100215.63;;;10.49;100.00
8641;BME280;4358;42.100;25.222;2023-03-23T06:43:25;100222.81;;;10.47;100.00
8641;BME280;4358;42.100;25.222;2023-03-23T06:45:54;100219.50;;;10.58;100.00
8641;BME280;4358;42.100;25.222;2023-03-23T06:48:20;100218.94;;;10.39;100.00
8641;BME280;4358;42.100;25.222;2023-03-23T06:50:47;100224.25;;;10.53;100.00
8641;BME280;4358;42.100;25.222;2023-03-23T06:53:14;100226.53;;;10.59;100.00
8641;BME280;4358;42.100;25.222;2023-03-23T06:55:43;100233.91;;;10.68;100.00
8641;BME280;4358;42.100;25.222;2023-03-23T06:58:10;100228.53;;;10.70;100.00
8641;BME280;4358;42.100;25.222;2023-03-23T07:00:37;100232.00;;;10.84;100.00
8641;BME280;4358;42.100;25.222;2023-03-23T07:03:06;100232.00;;;10.84;100.00
8641;BME280;4358;42.100;25.222;2023-03-23T07:05:33;100223.66;;;10.90;100.00
8641;BME280;4358;42.100;25.222;2023-03-23T07:08:01;100237.47;;;11.10;100.00
8641;BME280;4358;42.100;25.222;2023-03-23T07:10:28;100245.59;;;11.21;100.00
8641;BME280;4358;42.100;25.222;2023-03-23T07:12:55;100243.50;;;11.26;100.00
8641;BME280;4358;42.100;25.222;2023-03-23T07:15:22;100234.41;;;11.30;100.00
8641;BME280;4358;42.100;25.222;2023-03-23T07:17:49;100240.63;;;11.43;100.00
8641;BME280;4358;42.100;25.222;2023-03-23T07:20:17;100233.44;;;11.58;100.00
8641;BME280;4358;42.100;25.222;2023-03-23T07:22:44;100229.59;;;11.49;100.00
8641;BME280;4358;42.100;25.222;2023-03-23T07:25:11;100230.00;;;11.43;100.00
8641;BME280;4358;42.100;25.222;2023-03-23T07:27:38;100241.13;;;11.62;100.00
8641;BME280;4358;42.100;25.222;2023-03-23T07:30:06;100248.31;;;11.74;100.00
8641;BME280;4358;42.100;25.222;2023-03-23T07:32:33;100237.63;;;11.62;100.00
8641;BME280;4358;42.100;25.222;2023-03-23T07:35:00;100244.63;;;11.89;100.00
8641;BME280;4358;42.100;25.222;2023-03-23T07:37:28;100253.53;;;12.03;100.00
8641;BME280;4358;42.100;25.222;2023-03-23T07:39:55;100254.91;;;12.08;100.00
8641;BME280;4358;42.100;25.222;2023-03-23T07:42:22;100261.31;;;12.18;100.00
8641;BME280;4358;42.100;25.222;2023-03-23T07:44:48;100263.63;;;12.10;100.00
8641;BME280;4358;42.100;25.222;2023-03-23T07:47:15;100267.69;;;12.16;100.00
8641;BME280;4358;42.100;25.222;2023-03-23T07:49:43;100271.41;;;12.13;100.00
8641;BME280;4358;42.100;25.222;2023-03-23T07:52:10;100256.31;;;12.14;100.00
8641;BME280;4358;42.100;25.222;2023-03-23T07:54:40;100267.59;;;12.30;100.00
8641;BME280;4358;42.100;25.222;2023-03-23T07:57:06;100270.16;;;12.31;100.00
8641;BME280;4358;42.100;25.222;2023-03-23T07:59:33;100263.56;;;12.37;100.00
8641;BME280;4358;42.100;25.222;2023-03-23T08:02:00;100273.75;;;12.30;100.00
8641;BME280;4358;42.100;25.222;2023-03-23T08:04:27;100267.50;;;12.44;100.00
8641;BME280;4358;42.100;25.222;2023-03-23T08:06:54;100280.06;;;12.42;100.00
8641;BME280;4358;42.100;25.222;2023-03-23T08:09:22;100283.06;;;12.50;100.00
8641;BME280;4358;42.100;25.222;2023-03-23T08:11:50;100282.63;;;12.56;100.00
8641;BME280;4358;42.100;25.222;2023-03-23T08:14:17;100281.25;;;12.63;100.00
8641;BME280;4358;42.100;25.222;2023-03-23T08:16:44;100280.50;;;12.74;100.00
8641;BME280;4358;42.100;25.222;2023-03-23T08:19:11;100286.25;;;12.81;100.00
8641;BME280;4358;42.100;25.222;2023-03-23T08:21:37;100283.25;;;12.72;100.00
8641;BME280;4358;42.100;25.222;2023-03-23T08:24:05;100278.91;;;12.84;100.00
8641;BME280;4358;42.100;25.222;2023-03-23T08:26:32;100274.38;;;13.10;100.00
8641;BME280;4358;42.100;25.222;2023-03-23T08:29:00;100281.09;;;13.28;100.00
8641;BME280;4358;42.100;25.222;2023-03-23T08:31:27;100278.31;;;13.30;100.00
8641;BME280;4358;42.100;25.222;2023-03-23T08:33:53;100291.78;;;13.28;100.00
8641;BME280;4358;42.100;25.222;2023-03-23T08:36:22;100291.34;;;13.34;100.00
8641;BME280;4358;42.100;25.222;2023-03-23T08:38:49;100295.06;;;13.32;100.00
8641;BME280;4358;42.100;25.222;2023-03-23T08:41:17;100290.47;;;13.34;100.00
8641;BME280;4358;42.100;25.222;2023-03-23T08:43:44;100281.72;;;13.44;100.00
8641;BME280;4358;42.100;25.222;2023-03-23T08:46:13;100290.16;;;13.62;100.00
8641;BME280;4358;42.100;25.222;2023-03-23T08:48:40;100298.19;;;13.86;100.00
8641;BME280;4358;42.100;25.222;2023-03-23T08:51:09;100296.69;;;13.82;100.00
8641;BME280;4358;42.100;25.222;2023-03-23T08:53:36;100303.56;;;13.97;100.00
8641;BME280;4358;42.100;25.222;2023-03-23T08:56:04;100308.31;;;14.28;100.00
8641;BME280;4358;42.100;25.222;2023-03-23T08:58:32;100304.19;;;14.35;100.00
8641;BME280;4358;42.100;25.222;2023-03-23T09:00:59;100304.50;;;14.44;100.00
8641;BME280;4358;42.100;25.222;2023-03-23T09:03:27;100293.34;;;14.50;100.00
8641;BME280;4358;42.100;25.222;2023-03-23T09:05:58;100299.94;;;14.68;100.00
8641;BME280;4358;42.100;25.222;2023-03-23T09:08:25;100292.44;;;15.06;100.00
8641;BME280;4358;42.100;25.222;2023-03-23T09:10:54;100297.50;;;15.43;100.00
8641;BME280;4358;42.100;25.222;2023-03-23T09:13:21;100308.91;;;15.67;100.00
8641;BME280;4358;42.100;25.222;2023-03-23T09:15:49;100311.66;;;15.88;100.00
8641;BME280;4358;42.100;25.222;2023-03-23T09:18:16;100300.81;;;16.00;100.00
8641;BME280;4358;42.100;25.222;2023-03-23T09:20:45;100312.94;;;16.04;100.00
8641;BME280;4358;42.100;25.222;2023-03-23T09:23:12;100309.75;;;16.10;100.00
8641;BME280;4358;42.100;25.222;2023-03-23T09:25:40;100311.81;;;16.07;100.00
8641;BME280;4358;42.100;25.222;2023-03-23T09:28:07;100303.00;;;16.27;100.00
8641;BME280;4358;42.100;25.222;2023-03-23T09:30:35;100307.56;;;16.36;100.00
8641;BME280;4358;42.100;25.222;2023-03-23T09:33:03;100294.25;;;16.46;100.00
8641;BME280;4358;42.100;25.222;2023-03-23T09:35:32;100292.56;;;16.66;100.00
8641;BME280;4358;42.100;25.222;2023-03-23T09:38:02;100296.94;;;16.87;100.00
8641;BME280;4358;42.100;25.222;2023-03-23T09:40:35;100302.38;;;17.07;100.00
8641;BME280;4358;42.100;25.222;2023-03-23T09:43:37;100297.81;;;16.98;100.00
8641;BME280;4358;42.100;25.222;2023-03-23T09:46:20;100292.22;;;17.01;100.00
8641;BME280;4358;42.100;25.222;2023-03-23T09:48:52;100276.72;;;17.14;100.00
8641;BME280;4358;42.100;25.222;2023-03-23T09:51:32;100285.22;;;17.19;100.00
8641;BME280;4358;42.100;25.222;2023-03-23T09:54:11;100287.44;;;17.14;100.00
8641;BME280;4358;42.100;25.222;2023-03-23T09:56:40;100285.38;;;16.97;100.00
8641;BME280;4358;42.100;25.222;2023-03-23T09:59:14;100282.34;;;16.80;100.00
8641;BME280;4358;42.100;25.222;2023-03-23T10:01:45;100271.06;;;17.17;100.00
8641;BME280;4358;42.100;25.222;2023-03-23T10:04:21;100274.66;;;17.67;100.00
8641;BME280;4358;42.100;25.222;2023-03-23T10:06:51;100270.72;;;18.00;100.00
8641;BME280;4358;42.100;25.222;2023-03-23T10:09:19;100267.47;;;18.25;99.26
8641;BME280;4358;42.100;25.222;2023-03-23T10:11:54;100261.94;;;18.36;98.23
8641;BME280;4358;42.100;25.222;2023-03-23T10:14:32;100263.03;;;18.43;99.71
8641;BME280;4358;42.100;25.222;2023-03-23T10:17:13;100261.78;;;18.28;98.48
8641;BME280;4358;42.100;25.222;2023-03-23T10:19:46;100254.03;;;18.06;99.12
8641;BME280;4358;42.100;25.222;2023-03-23T10:22:17;100251.78;;;17.92;99.64
8641;BME280;4358;42.100;25.222;2023-03-23T10:24:51;100249.50;;;17.68;99.60
8641;BME280;4358;42.100;25.222;2023-03-23T10:27:26;100250.63;;;17.75;100.00
8641;BME280;4358;42.100;25.222;2023-03-23T10:30:02;100255.72;;;17.68;100.00
8641;BME280;4358;42.100;25.222;2023-03-23T10:32:45;100255.16;;;17.25;100.00
8641;BME280;4358;42.100;25.222;2023-03-23T10:35:18;100247.63;;;17.09;100.00
8641;BME280;4358;42.100;25.222;2023-03-23T10:37:50;100254.59;;;16.91;100.00
8641;BME280;4358;42.100;25.222;2023-03-23T10:40:23;100253.72;;;16.39;100.00
8641;BME280;4358;42.100;25.222;2023-03-23T10:42:52;100250.44;;;15.94;100.00
8641;BME280;4358;42.100;25.222;2023-03-23T10:45:22;100257.47;;;15.75;100.00
8641;BME280;4358;42.100;25.222;2023-03-23T10:47:54;100252.28;;;15.40;100.00
8641;BME280;4358;42.100;25.222;2023-03-23T10:50:25;100250.16;;;15.11;100.00
8641;BME280;4358;42.100;25.222;2023-03-23T10:52:55;100246.50;;;14.90;100.00
8641;BME280;4358;42.100;25.222;2023-03-23T10:55:35;100251.00;;;14.78;100.00
8641;BME280;4358;42.100;25.222;2023-03-23T10:58:06;100241.66;;;14.95;100.00
8641;BME280;4358;42.100;25.222;2023-03-23T11:00:40;100247.72;;;15.08;100.00
8641;BME280;4358;42.100;25.222;2023-03-23T11:03:24;100247.22;;;15.14;100.00
8641;BME280;4358;42.100;25.222;2023-03-23T11:05:53;100242.34;;;15.19;100.00
8641;BME280;4358;42.100;25.222;2023-03-23T11:08:24;100244.66;;;15.13;100.00
8641;BME280;4358;42.100;25.222;2023-03-23T11:10:55;100245.28;;;15.05;100.00
8641;BME280;4358;42.100;25.222;2023-03-23T11:13:31;100244.69;;;15.02;100.00
8641;BME280;4358;42.100;25.222;2023-03-23T11:15:59;100241.16;;;15.01;100.00
8641;BME280;4358;42.100;25.222;2023-03-23T11:18:35;100250.25;;;14.76;100.00
8641;BME280;4358;42.100;25.222;2023-03-23T11:21:03;100235.69;;;14.92;100.00
8641;BME280;4358;42.100;25.222;2023-03-23T11:23:33;100238.25;;;14.93;100.00
8641;BME280;4358;42.100;25.222;2023-03-23T11:26:09;100232.19;;;14.91;100.00
8641;BME280;4358;42.100;25.222;2023-03-23T11:28:41;100232.66;;;14.96;100.00
8641;BME280;4358;42.100;25.222;2023-03-23T11:31:09;100228.41;;;14.94;100.00
8641;BME280;4358;42.100;25.222;2023-03-23T11:33:41;100225.13;;;15.01;100.00
8641;BME280;4358;42.100;25.222;2023-03-23T11:36:08;100215.88;;;15.16;100.00
8641;BME280;4358;42.100;25.222;2023-03-23T11:38:36;100222.88;;;15.28;100.00
8641;BME280;4358;42.100;25.222;2023-03-23T11:41:09;100215.56;;;15.53;100.00
8641;BME280;4358;42.100;25.222;2023-03-23T11:43:39;100216.97;;;15.68;100.00
8641;BME280;4358;42.100;25.222;2023-03-23T11:46:13;100212.50;;;15.89;100.00
8641;BME280;4358;42.100;25.222;2023-03-23T11:48:49;100210.28;;;15.94;100.00
8641;BME280;4358;42.100;25.222;2023-03-23T11:51:22;100213.94;;;15.93;100.00
8641;BME280;4358;42.100;25.222;2023-03-23T11:53:57;100207.09;;;16.00;100.00
8641;BME280;4358;42.100;25.222;2023-03-23T11:56:29;100200.56;;;16.14;100.00
8641;BME280;4358;42.100;25.222;2023-03-23T11:58:58;100200.63;;;16.24;100.00
8641;BME280;4358;42.100;25.222;2023-03-23T12:01:40;100193.41;;;16.45;100.00
8641;BME280;4358;42.100;25.222;2023-03-23T12:04:32;100197.72;;;16.57;100.00
8641;BME280;4358;42.100;25.222;2023-03-23T12:07:30;100206.94;;;16.43;100.00
8641;BME280;4358;42.100;25.222;2023-03-23T12:10:06;100199.44;;;16.58;100.00
8641;BME280;4358;42.100;25.222;2023-03-23T12:12:40;100197.28;;;16.82;100.00
8641;BME280;4358;42.100;25.222;2023-03-23T12:15:17;100200.13;;;16.90;100.00
8641;BME280;4358;42.100;25.222;2023-03-23T12:17:53;100197.19;;;16.93;100.00
8641;BME280;4358;42.100;25.222;2023-03-23T12:20:31;100191.31;;;17.09;100.00
8641;BME280;4358;42.100;25.222;2023-03-23T12:23:15;100194.56;;;17.13;100.00
8641;BME280;4358;42.100;25.222;2023-03-23T12:26:10;100199.78;;;17.05;100.00
8641;BME280;4358;42.100;25.222;2023-03-23T12:29:08;100189.91;;;17.05;100.00
8641;BME280;4358;42.100;25.222;2023-03-23T12:31:47;100197.00;;;17.16;100.00
8641;BME280;4358;42.100;25.222;2023-03-23T12:34:24;100194.00;;;17.09;100.00
8641;BME280;4358;42.100;25.222;2023-03-23T12:37:11;100194.88;;;17.19;100.00
8641;BME280;4358;42.100;25.222;2023-03-23T12:40:06;100197.25;;;17.13;100.00
8641;BME280;4358;42.100;25.222;2023-03-23T12:42:45;100197.13;;;17.24;100.00
8641;BME280;4358;42.100;25.222;2023-03-23T12:45:21;100151.50;;;17.05;100.00
8641;BME280;4358;42.100;25.222;2023-03-23T12:47:55;100199.72;;;17.45;100.00
8641;BME280;4358;42.100;25.222;2023-03-23T12:50:28;100179.94;;;17.55;100.00
8641;BME280;4358;42.100;25.222;2023-03-23T12:53:01;100185.94;;;17.68;100.00
8641;BME280;4358;42.100;25.222;2023-03-23T12:55:34;100182.09;;;17.81;100.00
8641;BME280;4358;42.100;25.222;2023-03-23T12:58:05;100189.59;;;17.87;100.00
8641;BME280;4358;42.100;25.222;2023-03-23T13:00:48;100189.59;;;17.87;100.00
8641;BME280;4358;42.100;25.222;2023-03-23T13:03:22;100177.44;;;17.83;100.00
8641;BME280;4358;42.100;25.222;2023-03-23T13:05:54;100178.31;;;17.73;100.00
8641;BME280;4358;42.100;25.222;2023-03-23T13:08:27;100179.94;;;17.55;100.00
8641;BME280;4358;42.100;25.222;2023-03-23T13:11:00;100179.38;;;17.42;100.00